Time;durP1;ratioP1;P1;durP2;ratioP2;P2;SDS_P1;SDS_P2;PMS_P1;PMS_P2;Temp;Humidity;BMP_temperature;BMP_pressure;BME280_temperature;BME280_humidity;BME280_pressure;Samples;Min_cycle;Max_cycle;Signal;HPM_P1;HPM_P2
2021/10/31 00:02:01;;;;;;;7.70;5.05;;;12.90;88.90;;;;;;5072254;28;20409;-85
2021/10/31 00:04:27;;;;;;;8.57;6.18;;;12.90;89.00;;;;;;5078209;28;20027;-87
2021/10/31 00:06:53;;;;;;;8.13;6.57;;;12.90;89.00;;;;;;5071303;28;20087;-88
2021/10/31 00:09:18;;;;;;;6.00;4.57;;;12.80;89.00;;;;;;5071432;28;20109;-86
2021/10/31 00:11:44;;;;;;;6.30;5.20;;;12.80;89.10;;;;;;5066398;28;20045;-87
2021/10/31 00:14:09;;;;;;;6.60;5.07;;;12.80;89.00;;;;;;5067630;28;20474;-85
2021/10/31 00:16:35;;;;;;;5.32;4.65;;;12.90;89.10;;;;;;5068657;28;20074;-84
2021/10/31 00:19:00;;;;;;;7.72;5.07;;;12.90;89.10;;;;;;5070919;28;20036;-85
2021/10/31 00:21:26;;;;;;;8.30;6.30;;;12.80;89.10;;;;;;5070923;28;20048;-85
2021/10/31 00:23:53;;;;;;;5.90;4.50;;;12.80;89.00;;;;;;5073195;28;20020;-85
2021/10/31 00:26:19;;;;;;;5.55;4.13;;;12.80;89.10;;;;;;5076122;28;20578;-85
2021/10/31 00:28:44;;;;;;;8.48;6.00;;;12.80;89.10;;;;;;5071874;28;20029;-86
2021/10/31 00:31:11;;;;;;;7.82;5.70;;;12.90;89.00;;;;;;5070258;28;20449;-85
2021/10/31 00:33:37;;;;;;;6.75;4.55;;;12.80;89.00;;;;;;5070670;28;20028;-86
2021/10/31 00:36:03;;;;;;;7.03;5.47;;;12.80;89.00;;;;;;5079684;28;20028;-86
2021/10/31 00:38:29;;;;;;;5.82;4.68;;;12.80;89.00;;;;;;5069094;28;20024;-86
2021/10/31 00:40:54;;;;;;;5.15;4.10;;;12.80;89.00;;;;;;5072935;28;20028;-86
2021/10/31 00:43:20;;;;;;;4.97;3.88;;;12.80;89.00;;;;;;5071359;28;20471;-85
2021/10/31 00:45:46;;;;;;;7.43;5.30;;;12.80;88.90;;;;;;5071172;28;20037;-87
2021/10/31 00:48:11;;;;;;;7.40;5.25;;;12.80;88.80;;;;;;5071369;28;20021;-84
2021/10/31 00:50:38;;;;;;;5.43;4.43;;;12.80;88.80;;;;;;5065071;28;20028;-86
2021/10/31 00:53:04;;;;;;;6.75;5.15;;;12.80;88.90;;;;;;5063525;28;21690;-83
2021/10/31 00:55:30;;;;;;;7.13;5.57;;;12.80;88.90;;;;;;5076927;28;20032;-84
2021/10/31 00:57:57;;;;;;;9.55;5.75;;;12.70;88.80;;;;;;5067789;28;20533;-84
2021/10/31 01:00:23;;;;;;;7.72;4.80;;;12.70;88.70;;;;;;5071929;28;20024;-84
2021/10/31 01:02:49;;;;;;;6.50;4.68;;;12.70;88.80;;;;;;5071332;28;20029;-84
2021/10/31 01:05:19;;;;;;;8.32;5.32;;;12.60;88.80;;;;;;5077895;28;20027;-83
2021/10/31 01:08:00;;;;;;;9.90;6.22;;;12.60;88.80;;;;;;5072454;28;20029;-84
2021/10/31 01:10:45;;;;;;;7.25;5.35;;;12.60;88.90;;;;;;5084052;28;20116;-84
2021/10/31 01:13:38;;;;;;;8.00;5.47;;;12.50;88.90;;;;;;5077586;28;20486;-83
2021/10/31 01:16:06;;;;;;;9.52;5.05;;;12.60;89.00;;;;;;5075965;28;20141;-83
2021/10/31 01:18:45;;;;;;;8.40;6.10;;;12.60;89.00;;;;;;5064703;28;20495;-84
2021/10/31 01:21:24;;;;;;;9.82;5.57;;;12.50;89.00;;;;;;5077899;28;20033;-84
2021/10/31 01:24:16;;;;;;;7.57;5.15;;;12.50;89.10;;;;;;5061726;28;20036;-84
2021/10/31 01:27:05;;;;;;;7.60;5.45;;;12.50;89.10;;;;;;5067482;28;20501;-83
2021/10/31 01:29:50;;;;;;;9.30;5.93;;;12.50;89.20;;;;;;5059779;28;20033;-84
2021/10/31 01:32:44;;;;;;;7.90;5.70;;;12.50;89.20;;;;;;5073087;28;20054;-85
2021/10/31 01:35:22;;;;;;;7.60;5.40;;;12.50;89.20;;;;;;5069036;28;20040;-84
2021/10/31 01:38:05;;;;;;;6.30;4.63;;;12.40;89.20;;;;;;5069952;28;20116;-84
2021/10/31 01:40:42;;;;;;;8.50;5.00;;;12.50;89.30;;;;;;5071926;28;20031;-85
2021/10/31 01:43:38;;;;;;;8.15;5.30;;;12.50;89.20;;;;;;5069969;28;20017;-84
2021/10/31 01:46:17;;;;;;;6.68;5.53;;;12.50;89.20;;;;;;5070438;28;20086;-82
2021/10/31 01:48:49;;;;;;;6.45;5.00;;;12.50;89.20;;;;;;5073174;28;20111;-83
2021/10/31 01:51:27;;;;;;;7.60;5.73;;;12.50;89.30;;;;;;5079910;28;20033;-83
2021/10/31 01:54:11;;;;;;;6.72;4.65;;;12.40;89.20;;;;;;5072014;28;20059;-86
2021/10/31 01:56:40;;;;;;;5.82;4.70;;;12.40;89.40;;;;;;5070940;28;20036;-84
2021/10/31 01:59:15;;;;;;;8.50;5.15;;;12.40;89.30;;;;;;5068271;28;20486;-83
2021/10/31 02:01:43;;;;;;;5.25;3.95;;;12.40;89.30;;;;;;5075570;28;20020;-84
2021/10/31 02:04:12;;;;;;;11.68;6.72;;;12.40;89.30;;;;;;5062103;28;20044;-85
2021/10/31 02:06:43;;;;;;;8.68;5.55;;;12.40;89.30;;;;;;5068983;28;20028;-86
2021/10/31 02:09:10;;;;;;;7.35;4.65;;;12.40;89.30;;;;;;5068438;28;20032;-85
2021/10/31 02:11:38;;;;;;;6.65;4.68;;;12.40;89.40;;;;;;5069771;28;20552;-86
2021/10/31 02:14:04;;;;;;;10.55;6.15;;;12.40;89.30;;;;;;5071719;28;20039;-85
2021/10/31 02:16:33;;;;;;;8.02;5.80;;;12.30;89.30;;;;;;5066685;28;20481;-86
2021/10/31 02:19:04;;;;;;;6.35;4.30;;;12.30;89.40;;;;;;5069658;28;20028;-85
2021/10/31 02:21:33;;;;;;;6.00;4.17;;;12.30;89.40;;;;;;5073495;28;20027;-85
2021/10/31 02:24:01;;;;;;;8.35;4.22;;;12.30;89.40;;;;;;5072183;28;20025;-86
2021/10/31 02:26:26;;;;;;;7.15;4.32;;;12.30;89.40;;;;;;5069895;28;20044;-86
2021/10/31 02:28:57;;;;;;;6.90;5.30;;;12.30;89.30;;;;;;5071455;28;20024;-86
2021/10/31 02:31:23;;;;;;;9.77;6.38;;;12.30;89.30;;;;;;5072296;28;20028;-86
2021/10/31 02:33:49;;;;;;;6.95;5.13;;;12.20;89.20;;;;;;5068157;28;20036;-85
2021/10/31 02:36:15;;;;;;;9.40;5.60;;;12.20;89.30;;;;;;5068342;28;20158;-85
2021/10/31 02:38:41;;;;;;;7.65;5.10;;;12.20;89.30;;;;;;5071678;28;20103;-85
2021/10/31 02:41:08;;;;;;;6.25;4.22;;;12.20;89.40;;;;;;5078110;28;20020;-85
2021/10/31 02:43:33;;;;;;;8.13;5.30;;;12.20;89.40;;;;;;5069662;28;20078;-84
2021/10/31 02:45:59;;;;;;;5.15;3.92;;;12.20;89.40;;;;;;5059561;28;20090;-84
2021/10/31 02:48:25;;;;;;;6.43;4.80;;;12.20;89.30;;;;;;5060752;28;20032;-85
2021/10/31 02:50:57;;;;;;;9.07;5.45;;;12.20;89.30;;;;;;5069345;28;20043;-85
2021/10/31 02:53:33;;;;;;;10.00;5.65;;;12.20;89.40;;;;;;5066618;28;20024;-83
2021/10/31 02:56:21;;;;;;;10.65;5.70;;;12.10;89.40;;;;;;5073278;28;20372;-83
2021/10/31 02:58:59;;;;;;;7.68;4.70;;;12.10;89.50;;;;;;5076420;28;20032;-83
2021/10/31 03:01:27;;;;;;;10.25;5.80;;;12.10;89.60;;;;;;5071565;28;20106;-83
2021/10/31 03:03:56;;;;;;;7.68;5.32;;;12.10;89.50;;;;;;5071671;28;20035;-84
2021/10/31 03:06:22;;;;;;;9.82;6.03;;;12.10;89.50;;;;;;5073850;28;20028;-84
2021/10/31 03:08:48;;;;;;;6.50;4.80;;;12.10;89.50;;;;;;5072305;28;20101;-83
2021/10/31 03:11:14;;;;;;;8.38;5.50;;;12.10;89.60;;;;;;5074700;28;20471;-84
2021/10/31 03:13:40;;;;;;;7.03;4.68;;;12.00;89.50;;;;;;5075370;28;20020;-83
2021/10/31 03:16:07;;;;;;;7.45;4.50;;;12.10;89.60;;;;;;5072992;28;20090;-84
2021/10/31 03:18:33;;;;;;;5.63;3.60;;;12.10;89.60;;;;;;5072198;28;20021;-84
2021/10/31 03:20:59;;;;;;;6.80;4.30;;;12.00;89.50;;;;;;5073126;28;20430;-85
2021/10/31 03:23:24;;;;;;;6.18;4.47;;;12.10;89.50;;;;;;5081687;28;20017;-85
2021/10/31 03:25:50;;;;;;;7.85;4.32;;;12.10;89.50;;;;;;5073356;28;20028;-88
2021/10/31 03:28:16;;;;;;;6.35;3.85;;;12.10;89.40;;;;;;5076660;28;20040;-87
2021/10/31 03:30:41;;;;;;;5.28;3.75;;;12.10;89.40;;;;;;5077476;28;20117;-85
2021/10/31 03:33:07;;;;;;;4.72;3.60;;;12.10;89.30;;;;;;5071503;28;20024;-84
2021/10/31 03:35:33;;;;;;;4.95;3.58;;;12.10;89.30;;;;;;5069921;28;20134;-84
2021/10/31 03:37:59;;;;;;;4.80;3.17;;;12.10;89.30;;;;;;5080176;28;20096;-84
2021/10/31 03:40:24;;;;;;;4.38;3.47;;;12.20;89.30;;;;;;5072983;28;20025;-85
2021/10/31 03:42:50;;;;;;;5.85;3.85;;;12.20;89.20;;;;;;5072198;28;20510;-85
2021/10/31 03:45:16;;;;;;;5.68;3.80;;;12.20;89.10;;;;;;5077711;28;20041;-85
2021/10/31 03:47:46;;;;;;;4.25;3.50;;;12.20;89.10;;;;;;5067948;28;20093;-85
2021/10/31 03:50:14;;;;;;;5.10;3.40;;;12.30;89.00;;;;;;5071551;28;20047;-84
2021/10/31 03:52:40;;;;;;;5.63;4.13;;;12.20;89.00;;;;;;5073497;28;20028;-81
2021/10/31 03:55:07;;;;;;;5.95;4.40;;;12.20;88.90;;;;;;5072062;28;20044;-83
2021/10/31 03:57:34;;;;;;;3.95;3.45;;;12.20;89.00;;;;;;5073811;28;20510;-81
2021/10/31 04:00:00;;;;;;;4.75;3.78;;;12.20;88.90;;;;;;5076707;28;20092;-81
2021/10/31 04:02:25;;;;;;;6.35;4.20;;;12.20;88.90;;;;;;5075620;28;20063;-82
2021/10/31 04:04:51;;;;;;;5.68;3.70;;;12.20;88.90;;;;;;5059134;28;20074;-82
2021/10/31 04:07:16;;;;;;;6.20;4.15;;;12.30;88.90;;;;;;5061561;28;20044;-82
2021/10/31 04:09:42;;;;;;;5.80;3.50;;;12.20;88.90;;;;;;5072103;28;20490;-82
2021/10/31 04:12:08;;;;;;;5.90;3.95;;;12.20;88.90;;;;;;5068063;28;20511;-81
2021/10/31 04:14:33;;;;;;;4.85;3.65;;;12.20;88.80;;;;;;5066534;28;20086;-83
2021/10/31 04:16:59;;;;;;;4.40;3.60;;;12.20;88.90;;;;;;5072954;28;20404;-81
2021/10/31 04:19:24;;;;;;;4.63;3.50;;;12.30;88.90;;;;;;5072182;28;20078;-83
2021/10/31 04:21:50;;;;;;;4.90;3.55;;;12.20;88.80;;;;;;5066441;28;20079;-82
2021/10/31 04:24:17;;;;;;;6.25;4.47;;;12.20;88.80;;;;;;5070646;28;20031;-83
2021/10/31 04:26:43;;;;;;;5.82;4.22;;;12.20;88.80;;;;;;5071638;28;20020;-82
2021/10/31 04:29:09;;;;;;;5.05;3.88;;;12.20;88.80;;;;;;5076927;28;20086;-82
2021/10/31 04:31:34;;;;;;;4.72;3.65;;;12.10;88.80;;;;;;5074424;28;20025;-82
2021/10/31 04:34:00;;;;;;;5.40;3.53;;;12.20;89.40;;;;;;5076446;28;20039;-83
2021/10/31 04:36:26;;;;;;;4.68;2.80;;;12.20;88.80;;;;;;5072222;28;20043;-84
2021/10/31 04:38:54;;;;;;;4.20;3.10;;;12.20;88.70;;;;;;5080879;28;20020;-82
2021/10/31 04:41:21;;;;;;;3.90;2.92;;;12.20;88.70;;;;;;5077275;28;20410;-84
2021/10/31 04:43:46;;;;;;;4.63;3.28;;;12.20;88.70;;;;;;5075806;28;20519;-84
2021/10/31 04:46:12;;;;;;;5.80;3.30;;;12.20;88.70;;;;;;5073327;28;20033;-83
2021/10/31 04:48:37;;;;;;;4.82;3.50;;;12.30;88.60;;;;;;5074797;28;20025;-84
2021/10/31 04:51:03;;;;;;;4.07;3.13;;;12.30;88.60;;;;;;5071319;28;20033;-84
2021/10/31 04:53:28;;;;;;;4.82;3.10;;;12.30;88.60;;;;;;5069035;28;20029;-84
2021/10/31 04:55:54;;;;;;;4.57;3.25;;;12.30;88.60;;;;;;5076198;28;20032;-84
2021/10/31 04:58:19;;;;;;;4.65;3.40;;;12.30;88.50;;;;;;5068386;28;20039;-85
2021/10/31 05:00:45;;;;;;;4.78;3.60;;;12.30;88.50;;;;;;5070229;28;20035;-86
2021/10/31 05:03:11;;;;;;;4.75;3.40;;;12.30;88.50;;;;;;5070529;28;20363;-85
2021/10/31 05:05:36;;;;;;;5.60;3.72;;;12.30;88.40;;;;;;5074943;28;20699;-86
2021/10/31 05:08:04;;;;;;;4.63;3.53;;;12.30;88.30;;;;;;5068098;28;20028;-85
2021/10/31 05:10:29;;;;;;;5.03;3.33;;;12.30;88.30;;;;;;5068128;28;20111;-85
2021/10/31 05:12:55;;;;;;;5.82;3.83;;;12.30;88.20;;;;;;5070923;28;20103;-85
2021/10/31 05:15:20;;;;;;;4.45;3.55;;;12.20;88.20;;;;;;5066443;28;20062;-84
2021/10/31 05:17:47;;;;;;;3.65;2.88;;;12.30;88.20;;;;;;5069463;28;20074;-85
2021/10/31 05:20:13;;;;;;;3.90;2.90;;;12.20;88.10;;;;;;5076266;28;20175;-84
2021/10/31 05:22:39;;;;;;;5.55;4.20;;;12.20;88.00;;;;;;5074515;28;20077;-83
2021/10/31 05:25:06;;;;;;;6.70;4.22;;;12.20;88.00;;;;;;5070447;28;20762;-83
2021/10/31 05:27:33;;;;;;;5.40;4.05;;;12.10;88.10;;;;;;5065582;28;20111;-83
2021/10/31 05:29:58;;;;;;;6.75;5.03;;;12.10;88.20;;;;;;5070931;28;20115;-84
2021/10/31 05:32:31;;;;;;;7.38;4.95;;;12.00;88.20;;;;;;5075151;28;20675;-83
2021/10/31 05:34:56;;;;;;;5.80;4.50;;;11.90;88.40;;;;;;5072414;28;20032;-84
2021/10/31 05:37:22;;;;;;;6.45;4.70;;;11.90;88.60;;;;;;5074102;28;20537;-84
2021/10/31 05:39:47;;;;;;;5.30;3.90;;;11.80;88.60;;;;;;5069605;28;20033;-84
2021/10/31 05:42:13;;;;;;;6.22;4.72;;;11.80;88.70;;;;;;5073998;28;20025;-83
2021/10/31 05:44:38;;;;;;;5.85;3.97;;;11.80;88.70;;;;;;5072234;28;20807;-84
2021/10/31 05:47:04;;;;;;;5.13;3.50;;;11.80;88.80;;;;;;5071685;28;20406;-84
2021/10/31 05:49:31;;;;;;;4.28;3.38;;;11.90;88.80;;;;;;5078508;28;20025;-84
2021/10/31 05:51:57;;;;;;;5.88;3.72;;;11.80;88.70;;;;;;5070622;28;20020;-85
2021/10/31 05:54:22;;;;;;;4.75;3.70;;;11.80;88.60;;;;;;5076595;28;20033;-84
2021/10/31 05:56:48;;;;;;;6.90;5.40;;;11.80;88.70;;;;;;5072177;28;20032;-85
2021/10/31 05:59:13;;;;;;;5.97;4.65;;;11.70;88.60;;;;;;5069090;28;20031;-84
2021/10/31 06:01:39;;;;;;;6.50;5.35;;;11.60;88.80;;;;;;5069554;28;20028;-82
2021/10/31 06:04:05;;;;;;;4.80;3.60;;;11.60;88.90;;;;;;5074847;28;20028;-83
2021/10/31 06:06:30;;;;;;;7.65;5.47;;;11.60;89.00;;;;;;5070813;28;20099;-85
2021/10/31 06:08:56;;;;;;;5.05;3.83;;;11.50;88.90;;;;;;5078460;28;20730;-87
2021/10/31 06:11:21;;;;;;;6.50;4.45;;;11.60;89.00;;;;;;5067962;28;20040;-83
2021/10/31 06:13:47;;;;;;;7.95;5.00;;;11.50;88.90;;;;;;5076312;28;20032;-84
2021/10/31 06:16:13;;;;;;;7.80;5.70;;;11.50;89.10;;;;;;5073774;28;20027;-83
2021/10/31 06:18:39;;;;;;;8.57;5.60;;;11.50;89.10;;;;;;5074514;28;20027;-84
2021/10/31 06:21:05;;;;;;;6.95;5.40;;;11.40;89.10;;;;;;5072248;28;20449;-84
2021/10/31 06:23:31;;;;;;;7.50;6.53;;;11.40;89.20;;;;;;5069888;28;20025;-84
2021/10/31 06:25:56;;;;;;;7.65;6.20;;;11.30;90.00;;;;;;5086603;28;20436;-84
2021/10/31 06:28:22;;;;;;;9.23;6.78;;;11.30;89.50;;;;;;5072309;28;20517;-83
2021/10/31 06:30:47;;;;;;;7.38;5.75;;;11.30;89.70;;;;;;5071856;28;20067;-83
2021/10/31 06:33:13;;;;;;;7.57;6.13;;;11.30;89.90;;;;;;5073886;28;20060;-83
2021/10/31 06:35:39;;;;;;;8.95;6.43;;;11.30;90.00;;;;;;5078859;28;20029;-81
2021/10/31 06:38:05;;;;;;;8.75;6.05;;;11.30;90.00;;;;;;5078994;28;20390;-84
2021/10/31 06:40:30;;;;;;;7.07;5.72;;;11.30;90.00;;;;;;5072714;28;20054;-85
2021/10/31 06:42:56;;;;;;;10.40;7.40;;;11.30;90.00;;;;;;5072078;28;20020;-85
2021/10/31 06:45:22;;;;;;;7.82;6.07;;;11.30;90.00;;;;;;5058969;28;20112;-85
2021/10/31 06:47:47;;;;;;;8.23;6.53;;;11.30;90.00;;;;;;5061493;28;20028;-84
2021/10/31 06:50:13;;;;;;;8.18;6.50;;;11.30;90.10;;;;;;5076545;28;20029;-86
2021/10/31 06:52:39;;;;;;;8.18;6.70;;;11.30;90.10;;;;;;5076924;28;20020;-88
2021/10/31 06:55:09;;;;;;;6.30;5.28;;;11.30;90.40;;;;;;5083501;28;20044;-87
2021/10/31 06:57:34;;;;;;;9.40;6.68;;;11.40;90.10;;;;;;5059824;28;20494;-83
2021/10/31 07:00:00;;;;;;;8.48;6.72;;;11.30;90.10;;;;;;5080258;28;20048;-84
2021/10/31 07:02:25;;;;;;;8.20;6.28;;;11.40;90.10;;;;;;5075003;28;20018;-85
2021/10/31 07:04:51;;;;;;;10.95;7.35;;;11.40;90.10;;;;;;5071246;28;20681;-83
2021/10/31 07:07:16;;;;;;;6.30;5.20;;;11.40;90.10;;;;;;5070358;28;20031;-84
2021/10/31 07:09:42;;;;;;;8.70;6.72;;;11.40;90.10;;;;;;5076549;28;20429;-84
2021/10/31 07:12:08;;;;;;;7.38;5.80;;;11.40;90.10;;;;;;5071909;28;20036;-83
2021/10/31 07:14:36;;;;;;;10.05;7.70;;;11.40;90.10;;;;;;5067786;28;20025;-83
2021/10/31 07:17:01;;;;;;;7.45;5.40;;;11.40;90.10;;;;;;5071073;28;20043;-86
2021/10/31 07:19:27;;;;;;;9.23;6.30;;;11.40;90.10;;;;;;5070535;28;20029;-81
2021/10/31 07:21:52;;;;;;;8.35;6.65;;;11.40;90.10;;;;;;5070514;28;20021;-89
2021/10/31 07:24:18;;;;;;;9.50;7.55;;;11.40;90.10;;;;;;5068432;28;20397;-88
2021/10/31 07:26:44;;;;;;;8.20;6.97;;;11.40;90.10;;;;;;5072097;28;20028;-86
2021/10/31 07:29:09;;;;;;;8.48;6.45;;;11.40;90.20;;;;;;5068529;28;21967;-86
2021/10/31 07:31:39;;;;;;;7.85;6.50;;;11.40;90.20;;;;;;5064905;28;20031;-85
2021/10/31 07:34:08;;;;;;;6.15;4.70;;;11.40;90.20;;;;;;5071142;28;20028;-84
2021/10/31 07:36:34;;;;;;;8.70;6.50;;;11.50;90.20;;;;;;5070132;28;20038;-87
2021/10/31 07:38:59;;;;;;;10.90;7.55;;;11.50;90.20;;;;;;5080566;28;20020;-87
2021/10/31 07:41:25;;;;;;;9.80;7.63;;;11.50;90.20;;;;;;5073125;28;20498;-88
2021/10/31 07:43:53;;;;;;;8.63;7.03;;;11.50;90.20;;;;;;5064013;28;20021;-85
2021/10/31 07:46:19;;;;;;;9.00;7.65;;;11.50;90.20;;;;;;5061279;28;20094;-83
2021/10/31 07:48:45;;;;;;;12.20;7.35;;;11.60;90.20;;;;;;5072505;28;20078;-83
2021/10/31 07:51:10;;;;;;;9.15;6.72;;;11.60;90.20;;;;;;5070849;28;20028;-81
2021/10/31 07:53:39;;;;;;;6.50;5.35;;;11.60;90.20;;;;;;5065846;28;20020;-84
2021/10/31 07:56:05;;;;;;;7.38;6.35;;;11.70;90.20;;;;;;5069899;28;20024;-80
2021/10/31 07:58:31;;;;;;;7.15;6.45;;;11.70;90.20;;;;;;5069031;28;20077;-82
2021/10/31 08:00:57;;;;;;;6.50;5.70;;;11.70;90.20;;;;;;5073788;28;20029;-82
2021/10/31 08:03:22;;;;;;;7.88;6.18;;;11.80;90.20;;;;;;5067823;28;20384;-81
2021/10/31 08:05:48;;;;;;;6.53;5.00;;;11.80;90.10;;;;;;5067975;28;20036;-82
2021/10/31 08:08:17;;;;;;;6.10;5.15;;;11.90;90.10;;;;;;5070266;28;20107;-82
2021/10/31 08:10:45;;;;;;;5.53;4.90;;;11.90;90.10;;;;;;5069765;28;20764;-82
2021/10/31 08:13:19;;;;;;;6.72;5.60;;;11.90;90.10;;;;;;5069288;28;20032;-82
2021/10/31 08:15:44;;;;;;;6.95;5.93;;;11.90;90.00;;;;;;5066053;28;20086;-81
2021/10/31 08:18:10;;;;;;;9.00;6.80;;;12.00;90.00;;;;;;5065496;28;20052;-80
2021/10/31 08:20:35;;;;;;;7.68;6.45;;;11.90;90.00;;;;;;5069066;28;20029;-81
2021/10/31 08:23:03;;;;;;;7.30;6.50;;;12.00;90.00;;;;;;5066340;28;20021;-82
2021/10/31 08:25:28;;;;;;;7.80;6.50;;;12.00;90.10;;;;;;5068217;28;20036;-81
2021/10/31 08:27:55;;;;;;;7.30;5.80;;;12.10;90.00;;;;;;5064243;28;20078;-81
2021/10/31 08:30:29;;;;;;;8.63;6.63;;;12.10;90.00;;;;;;5070731;28;20497;-82
2021/10/31 08:32:55;;;;;;;8.70;7.28;;;12.10;89.90;;;;;;5068695;28;20020;-81
2021/10/31 08:35:21;;;;;;;9.00;7.30;;;12.10;90.00;;;;;;5069857;28;20387;-82
2021/10/31 08:37:47;;;;;;;8.63;7.38;;;12.10;90.00;;;;;;5078106;28;20027;-81
2021/10/31 08:40:12;;;;;;;8.88;6.93;;;12.10;90.00;;;;;;5072103;28;20073;-82
2021/10/31 08:42:39;;;;;;;7.53;6.20;;;12.20;90.00;;;;;;5075824;28;20055;-81
2021/10/31 08:45:09;;;;;;;9.02;6.65;;;12.20;90.00;;;;;;5079021;28;20481;-82
2021/10/31 08:47:34;;;;;;;8.75;7.35;;;12.20;89.90;;;;;;5072850;28;20032;-81
2021/10/31 08:50:01;;;;;;;7.15;6.40;;;12.30;90.00;;;;;;5070723;28;20082;-82
2021/10/31 08:52:27;;;;;;;8.77;6.55;;;12.30;90.00;;;;;;5072378;28;20112;-82
2021/10/31 08:54:52;;;;;;;8.15;7.00;;;12.40;89.90;;;;;;5069563;28;20039;-82
2021/10/31 08:57:18;;;;;;;9.02;7.05;;;12.40;89.80;;;;;;5068857;28;20108;-82
2021/10/31 08:59:43;;;;;;;8.98;6.30;;;12.40;89.70;;;;;;5063255;28;20474;-83
2021/10/31 09:02:09;;;;;;;7.80;6.38;;;12.40;89.60;;;;;;5078039;28;20043;-81
2021/10/31 09:04:39;;;;;;;6.07;5.45;;;12.40;89.50;;;;;;5063969;28;20017;-84
2021/10/31 09:07:04;;;;;;;7.63;6.47;;;12.40;89.40;;;;;;5067101;28;20067;-83
2021/10/31 09:09:30;;;;;;;6.70;5.82;;;12.50;89.30;;;;;;5066438;28;20063;-82
2021/10/31 09:11:55;;;;;;;6.47;5.15;;;12.50;89.10;;;;;;5066613;28;20047;-82
2021/10/31 09:14:22;;;;;;;8.13;5.97;;;12.50;89.00;;;;;;5068434;28;20032;-83
2021/10/31 09:16:48;;;;;;;7.53;5.90;;;12.50;88.90;;;;;;5066738;28;20052;-82
2021/10/31 09:19:16;;;;;;;6.28;4.72;;;12.50;88.70;;;;;;5069580;28;20043;-83
2021/10/31 09:21:42;;;;;;;5.57;4.75;;;12.60;88.70;;;;;;5078572;28;20699;-84
2021/10/31 09:24:08;;;;;;;10.25;7.00;;;12.60;88.70;;;;;;5057556;28;20052;-83
2021/10/31 09:26:35;;;;;;;8.43;5.75;;;12.70;88.50;;;;;;5065585;28;20064;-84
2021/10/31 09:29:02;;;;;;;8.15;6.03;;;12.70;88.40;;;;;;5067220;28;20023;-83
2021/10/31 09:31:27;;;;;;;7.95;6.45;;;12.80;88.30;;;;;;5066115;28;20025;-82
2021/10/31 09:33:54;;;;;;;8.40;6.18;;;12.80;88.20;;;;;;5057428;28;20538;-80
2021/10/31 09:36:20;;;;;;;6.80;5.47;;;12.80;88.00;;;;;;5058611;28;20040;-81
2021/10/31 09:38:46;;;;;;;8.30;5.93;;;12.90;87.90;;;;;;5062727;28;20032;-81
2021/10/31 09:41:14;;;;;;;5.85;4.50;;;12.90;87.70;;;;;;5068923;28;20451;-82
2021/10/31 09:43:53;;;;;;;5.85;5.00;;;13.00;87.60;;;;;;5060001;28;20021;-81
2021/10/31 09:46:19;;;;;;;6.70;5.05;;;13.00;87.10;;;;;;5066853;28;20032;-81
2021/10/31 09:48:44;;;;;;;6.07;4.50;;;13.00;87.00;;;;;;5063909;28;20079;-81
2021/10/31 09:51:10;;;;;;;5.47;4.63;;;13.10;86.90;;;;;;5070441;28;20460;-80
2021/10/31 09:53:36;;;;;;;5.93;4.35;;;13.10;86.80;;;;;;5069276;28;20036;-81
2021/10/31 09:56:02;;;;;;;5.25;4.70;;;13.20;86.60;;;;;;5062620;28;20036;-81
2021/10/31 09:58:40;;;;;;;4.50;3.53;;;13.30;86.40;;;;;;5066214;28;20633;-82
2021/10/31 10:01:30;;;;;;;5.20;4.70;;;13.30;86.20;;;;;;5069471;28;20099;-81
2021/10/31 10:03:56;;;;;;;6.57;4.90;;;13.30;86.00;;;;;;5075667;28;20021;-81
2021/10/31 10:06:25;;;;;;;5.85;4.35;;;13.30;85.30;;;;;;5068482;28;20021;-81
2021/10/31 10:09:00;;;;;;;5.13;4.05;;;13.30;85.10;;;;;;5065955;28;20028;-82
2021/10/31 10:11:28;;;;;;;5.03;3.88;;;13.40;85.10;;;;;;5076981;28;20036;-82
2021/10/31 10:14:05;;;;;;;5.07;4.20;;;13.40;84.90;;;;;;5063900;28;20044;-81
2021/10/31 10:16:30;;;;;;;4.75;4.00;;;13.50;84.80;;;;;;5071050;28;20119;-82
2021/10/31 10:18:57;;;;;;;4.50;3.70;;;13.50;84.70;;;;;;5067754;28;20104;-80
2021/10/31 10:21:24;;;;;;;7.38;4.43;;;13.50;84.50;;;;;;5075095;28;20012;-81
2021/10/31 10:23:55;;;;;;;4.82;3.90;;;13.50;84.30;;;;;;5071287;28;20534;-81
2021/10/31 10:26:32;;;;;;;4.25;3.30;;;13.60;84.10;;;;;;5068893;28;20048;-81
2021/10/31 10:29:08;;;;;;;5.68;3.92;;;13.60;84.00;;;;;;5070898;28;20020;-80
2021/10/31 10:31:33;;;;;;;5.13;3.80;;;13.60;83.90;;;;;;5075434;28;20021;-81
2021/10/31 10:33:59;;;;;;;3.63;3.08;;;13.70;83.80;;;;;;5075897;28;20036;-81
2021/10/31 10:36:25;;;;;;;5.38;3.88;;;13.80;83.90;;;;;;5071656;28;20025;-80
2021/10/31 10:39:15;;;;;;;5.97;3.10;;;13.80;83.40;;;;;;5070296;28;20390;-81
2021/10/31 10:41:49;;;;;;;4.10;3.00;;;13.90;83.30;;;;;;5072768;28;20025;-80
2021/10/31 10:44:36;;;;;;;5.32;2.97;;;13.90;82.80;;;;;;5070401;28;20044;-81
2021/10/31 10:47:04;;;;;;;6.55;3.63;;;13.90;82.90;;;;;;5068902;28;20024;-80
2021/10/31 10:49:34;;;;;;;3.10;2.65;;;14.00;82.90;;;;;;5065762;28;20028;-82
2021/10/31 10:52:06;;;;;;;2.97;2.55;;;14.00;82.80;;;;;;5069233;28;20112;-81
2021/10/31 10:54:34;;;;;;;3.67;3.08;;;14.10;82.80;;;;;;5071905;28;20086;-81
2021/10/31 10:57:07;;;;;;;2.97;2.28;;;14.10;82.30;;;;;;5070510;28;20107;-81
2021/10/31 10:59:35;;;;;;;4.35;2.42;;;14.20;82.50;;;;;;5078800;28;20073;-81
2021/10/31 11:02:14;;;;;;;2.95;2.50;;;14.30;81.90;;;;;;5068636;28;20028;-80
2021/10/31 11:04:42;;;;;;;3.75;2.88;;;14.30;81.70;;;;;;5070021;28;20024;-80
2021/10/31 11:07:08;;;;;;;2.60;2.33;;;14.40;81.50;;;;;;5074347;28;20031;-81
2021/10/31 11:09:39;;;;;;;3.30;2.30;;;14.50;81.60;;;;;;5073645;28;20029;-81
2021/10/31 11:12:32;;;;;;;3.65;2.30;;;14.60;81.40;;;;;;5071758;28;20025;-81
2021/10/31 11:15:22;;;;;;;2.65;2.35;;;14.60;80.70;;;;;;5074169;28;20032;-81
2021/10/31 11:17:51;;;;;;;3.63;2.00;;;14.70;80.10;;;;;;5070913;28;20407;-81
2021/10/31 11:20:26;;;;;;;2.78;2.20;;;14.70;79.80;;;;;;5076796;28;20028;-81
2021/10/31 11:22:56;;;;;;;2.25;1.83;;;14.70;79.60;;;;;;5073418;28;20336;-81
2021/10/31 11:25:24;;;;;;;3.08;1.90;;;14.70;79.50;;;;;;5071869;28;20028;-82
2021/10/31 11:27:51;;;;;;;2.53;1.80;;;14.80;79.70;;;;;;5075332;28;20024;-81
2021/10/31 11:30:19;;;;;;;2.90;1.90;;;14.90;79.60;;;;;;5066000;28;20028;-81
2021/10/31 11:32:45;;;;;;;2.80;1.80;;;15.00;79.10;;;;;;5075351;28;20487;-81
2021/10/31 11:35:14;;;;;;;2.35;1.90;;;15.00;78.90;;;;;;5071730;28;20486;-81
2021/10/31 11:38:09;;;;;;;2.42;1.90;;;15.00;78.70;;;;;;5071776;28;20066;-81
2021/10/31 11:40:42;;;;;;;2.90;2.20;;;15.10;78.60;;;;;;5065587;28;20032;-80
2021/10/31 11:43:14;;;;;;;2.47;1.90;;;15.10;77.90;;;;;;5065825;28;20077;-79
2021/10/31 11:45:44;;;;;;;2.13;1.70;;;15.10;77.70;;;;;;5078419;28;20052;-79
2021/10/31 11:48:21;;;;;;;2.03;1.83;;;15.10;77.80;;;;;;5066384;28;20048;-79
2021/10/31 11:50:59;;;;;;;3.47;2.10;;;15.10;78.20;;;;;;5072223;28;20032;-79
2021/10/31 11:53:46;;;;;;;2.45;2.10;;;15.10;78.40;;;;;;5064536;28;20512;-78
2021/10/31 11:56:31;;;;;;;2.67;2.10;;;15.00;78.00;;;;;;5045566;28;20511;-79
2021/10/31 11:58:59;;;;;;;3.13;2.17;;;15.00;78.20;;;;;;5066500;28;20555;-80
2021/10/31 12:01:33;;;;;;;3.55;2.03;;;14.90;78.40;;;;;;5071069;28;20391;-78
2021/10/31 12:04:01;;;;;;;2.45;2.00;;;14.90;78.70;;;;;;5070096;28;20028;-80
2021/10/31 12:06:26;;;;;;;3.15;1.70;;;15.00;78.80;;;;;;5067085;28;20028;-80
2021/10/31 12:08:58;;;;;;;2.65;2.10;;;15.00;78.90;;;;;;5065198;28;20698;-80
2021/10/31 12:11:47;;;;;;;2.83;2.22;;;15.00;78.90;;;;;;5065514;28;20028;-81
2021/10/31 12:14:13;;;;;;;3.53;1.92;;;15.00;78.90;;;;;;5059646;28;20032;-80
2021/10/31 12:16:54;;;;;;;1.88;1.70;;;15.00;79.10;;;;;;5071307;28;20539;-78
2021/10/31 12:19:24;;;;;;;2.88;1.83;;;15.00;79.20;;;;;;5070437;28;20130;-78
2021/10/31 12:22:10;;;;;;;2.97;2.00;;;15.10;79.30;;;;;;5068189;28;20024;-78
2021/10/31 12:24:42;;;;;;;2.60;2.10;;;15.00;79.00;;;;;;5066906;28;20674;-78
2021/10/31 12:27:14;;;;;;;2.10;1.63;;;15.10;79.30;;;;;;5072453;28;20028;-78
2021/10/31 12:29:50;;;;;;;2.80;2.13;;;15.10;79.30;;;;;;5069199;28;20058;-78
2021/10/31 12:32:20;;;;;;;3.63;2.58;;;15.10;79.20;;;;;;5072127;28;20075;-78
2021/10/31 12:34:55;;;;;;;4.13;2.50;;;15.10;79.40;;;;;;5068555;28;20028;-78
2021/10/31 12:37:26;;;;;;;5.20;2.25;;;15.10;79.40;;;;;;5070052;28;20028;-78
2021/10/31 12:40:13;;;;;;;3.20;2.22;;;15.10;79.40;;;;;;5063688;28;20040;-78
2021/10/31 12:42:51;;;;;;;2.40;1.48;;;15.20;79.50;;;;;;5075047;28;20032;-78
2021/10/31 12:45:16;;;;;;;2.17;1.98;;;15.20;79.60;;;;;;5071391;28;20024;-78
2021/10/31 12:47:54;;;;;;;2.15;1.90;;;15.30;79.60;;;;;;5070105;28;20494;-78
2021/10/31 12:50:29;;;;;;;4.97;2.22;;;15.30;79.70;;;;;;5077427;28;20031;-78
2021/10/31 12:53:00;;;;;;;2.67;2.20;;;15.30;79.70;;;;;;5067825;28;20032;-77
2021/10/31 12:55:27;;;;;;;2.10;1.80;;;15.30;79.60;;;;;;5059415;28;20039;-78